Flagship Orchid — V7YE4 — position and weather

sailwx.info

Track history (hours):
 
Tides and Currents Weather Stations Pressure Air Temp Water Temp Dewpoint Dewpoint Depression Visibility Wind Speed Wind Dir Waves Ship Positions

Flagship Orchid

Last reported at 2018-May-16 13:16 UTC. Time now 2018-May-22 19:47 UTC.
Position N 01°25' E 103°14'.

Length 228 m; draft 12.8 m.

Type: Ship. MMSI: 538004640.

Date/timePositionNaut miles runAvg speedWind from/ knotsBaromVisibWave heightAir tempDewpointWater temp
2018-May-16 13:16N 01°25' E 103°14'512.6
2018-May-16 12:50N 01°21' E 103°18'413.1
2018-May-16 12:30N 01°18' E 103°21'713.5
2018-May-16 11:59N 01°14' E 103°27'714.3
2018-May-16 11:30N 01°12' E 103°34'714.3
2018-May-16 11:00N 01°10' E 103°41'612.2
2018-May-16 10:31N 01°10' E 103°47'713.4
2018-May-16 09:59N 01°13' E 103°53'510.2
2018-May-16 09:30N 01°16' E 103°57'1 1.7
2018-May-16 08:59N 01°17' E 103°56'0 0.0
2018-May-16 08:19N 01°17' E 103°56'0 0.0
2018-May-16 07:59N 01°17' E 103°56'0 0.1
2018-May-16 06:50N 01°17' E 103°56'0 0.0
2018-May-16 06:29N 01°17' E 103°56'0 0.0
2018-May-16 05:53N 01°17' E 103°56'0 0.0
2018-May-16 05:28N 01°17' E 103°56'0 0.0
2018-May-16 04:53N 01°17' E 103°56'0 0.0
2018-May-16 04:28N 01°17' E 103°56'0 0.0
2018-May-16 03:55N 01°17' E 103°56'0 0.0
2018-May-16 03:28N 01°17' E 103°56'0 0.0
2018-May-16 02:58N 01°17' E 103°56'0 0.0
2018-May-16 02:17N 01°17' E 103°56'0 0.0
2018-May-16 01:47N 01°17' E 103°56'0 0.2
2018-May-16 01:17N 01°17' E 103°56'0 0.5
2018-May-16 00:56N 01°17' E 103°57'0 0.2
2018-May-16 00:26N 01°17' E 103°57'1 3.0
2018-May-16 00:00N 01°16' E 103°58'3 5.9
2018-May-15 23:30N 01°16' E 104°01'4 8.0
2018-May-15 23:00N 01°17' E 104°05'5 9.5
2018-May-15 22:30N 01°17' E 104°09'611.6
2018-May-15 21:59N 01°18' E 104°15'511.1
2018-May-15 21:30N 01°19' E 104°20'610.2
2018-May-15 20:57N 01°23' E 104°25'511.0
2018-May-15 20:28N 01°26' E 104°29'  
2018-May-10 16:13N 22°28' E 119°50'313.1
2018-May-10 16:00N 22°31' E 119°50'713.2
2018-May-10 15:29N 22°38' E 119°50'613.2
2018-May-10 15:00N 22°44' E 119°51'713.3
2018-May-10 14:30N 22°51' E 119°52'813.8
2018-May-10 13:58N 22°59' E 119°52'1013.4
2018-May-10 13:15N 23°08' E 119°52'313.1
2018-May-10 13:00N 23°11' E 119°52'813.2
2018-May-10 12:25N 23°19' E 119°53'512.9
2018-May-10 12:00N 23°24' E 119°53'812.1
2018-May-10 11:22N 23°32' E 119°55'412.3
2018-May-10 11:01N 23°36' E 119°56'  
Track history (hours):
 
Tides and Currents Weather Stations Pressure Air Temp Water Temp Dewpoint Dewpoint Depression Visibility Wind Speed Wind Dir Waves Ship Positions

Flagship Orchid

Last reported at 2018-May-16 13:16 UTC. Time now 2018-May-22 19:47 UTC.
Position N 01°25' E 103°14'.

Length 228 m; draft 12.8 m.

Type: Ship. MMSI: 538004640.

Date/timePositionNaut miles runAvg speedWind from/ knotsBaromVisibWave heightAir tempDewpointWater temp
2018-May-16 13:16N 01°25' E 103°14'512.6
2018-May-16 12:50N 01°21' E 103°18'413.1
2018-May-16 12:30N 01°18' E 103°21'713.5
2018-May-16 11:59N 01°14' E 103°27'714.3
2018-May-16 11:30N 01°12' E 103°34'714.3
2018-May-16 11:00N 01°10' E 103°41'612.2
2018-May-16 10:31N 01°10' E 103°47'713.4
2018-May-16 09:59N 01°13' E 103°53'510.2
2018-May-16 09:30N 01°16' E 103°57'1 1.7
2018-May-16 08:59N 01°17' E 103°56'0 0.0
2018-May-16 08:19N 01°17' E 103°56'0 0.0
2018-May-16 07:59N 01°17' E 103°56'0 0.1
2018-May-16 06:50N 01°17' E 103°56'0 0.0
2018-May-16 06:29N 01°17' E 103°56'0 0.0
2018-May-16 05:53N 01°17' E 103°56'0 0.0
2018-May-16 05:28N 01°17' E 103°56'0 0.0
2018-May-16 04:53N 01°17' E 103°56'0 0.0
2018-May-16 04:28N 01°17' E 103°56'0 0.0
2018-May-16 03:55N 01°17' E 103°56'0 0.0
2018-May-16 03:28N 01°17' E 103°56'0 0.0
2018-May-16 02:58N 01°17' E 103°56'0 0.0
2018-May-16 02:17N 01°17' E 103°56'0 0.0
2018-May-16 01:47N 01°17' E 103°56'0 0.2
2018-May-16 01:17N 01°17' E 103°56'0 0.5
2018-May-16 00:56N 01°17' E 103°57'0 0.2
2018-May-16 00:26N 01°17' E 103°57'1 3.0
2018-May-16 00:00N 01°16' E 103°58'3 5.9
2018-May-15 23:30N 01°16' E 104°01'4 8.0
2018-May-15 23:00N 01°17' E 104°05'5 9.5
2018-May-15 22:30N 01°17' E 104°09'611.6
2018-May-15 21:59N 01°18' E 104°15'511.1
2018-May-15 21:30N 01°19' E 104°20'610.2
2018-May-15 20:57N 01°23' E 104°25'511.0
2018-May-15 20:28N 01°26' E 104°29'  
2018-May-10 16:13N 22°28' E 119°50'313.1
2018-May-10 16:00N 22°31' E 119°50'713.2
2018-May-10 15:29N 22°38' E 119°50'613.2
2018-May-10 15:00N 22°44' E 119°51'713.3
2018-May-10 14:30N 22°51' E 119°52'813.8
2018-May-10 13:58N 22°59' E 119°52'1013.4
2018-May-10 13:15N 23°08' E 119°52'313.1
2018-May-10 13:00N 23°11' E 119°52'813.2
2018-May-10 12:25N 23°19' E 119°53'512.9
2018-May-10 12:00N 23°24' E 119°53'812.1
2018-May-10 11:22N 23°32' E 119°55'412.3
2018-May-10 11:01N 23°36' E 119°56'  

Dump ship's entire track history